createdAt,value
2023-05-21T00:02:30.919Z,15.87
2023-05-21T00:05:02.130Z,15.77
2023-05-21T00:07:34.051Z,15.78
2023-05-21T00:10:05.346Z,15.74
2023-05-21T00:12:36.223Z,15.68
2023-05-21T00:15:11.549Z,15.73
2023-05-21T00:17:43.930Z,15.73
2023-05-21T00:20:16.491Z,15.79
2023-05-21T00:22:49.161Z,15.71
2023-05-21T00:25:20.117Z,15.70
2023-05-21T00:27:50.851Z,15.63
2023-05-21T00:30:24.962Z,15.62
2023-05-21T00:32:55.792Z,15.59
2023-05-21T00:35:26.830Z,15.59
2023-05-21T00:37:57.719Z,15.61
2023-05-21T00:40:28.321Z,15.50
2023-05-21T00:42:59.184Z,15.55
2023-05-21T00:45:33.041Z,15.61
2023-05-21T00:48:04.728Z,15.58
2023-05-21T00:50:36.559Z,15.60
2023-05-21T00:53:09.784Z,15.52
2023-05-21T00:55:41.550Z,15.56
2023-05-21T00:58:12.455Z,15.46
2023-05-21T01:00:46.211Z,15.58
2023-05-21T01:03:17.858Z,15.53
2023-05-21T01:05:49.038Z,15.45
2023-05-21T01:08:21.954Z,15.54
2023-05-21T01:10:53.477Z,15.47
2023-05-21T01:13:26.404Z,15.44
2023-05-21T01:16:01.507Z,15.39
2023-05-21T01:18:35.472Z,15.37
2023-05-21T01:21:07.831Z,15.38
2023-05-21T01:23:41.710Z,15.31
2023-05-21T01:26:13.074Z,15.25
2023-05-21T01:28:44.605Z,15.18
2023-05-21T01:31:28.641Z,15.20
2023-05-21T01:34:03.430Z,15.17
2023-05-21T01:36:42.448Z,15.19
2023-05-21T01:39:24.009Z,15.21
2023-05-21T01:41:57.980Z,15.18
2023-05-21T01:44:29.944Z,15.19
2023-05-21T01:47:02.681Z,15.13
2023-05-21T01:49:33.868Z,15.05
2023-05-21T01:52:05.476Z,15.03
2023-05-21T01:54:38.830Z,15.12
2023-05-21T01:57:11.374Z,15.05
2023-05-21T01:59:44.501Z,15.00
2023-05-21T02:02:15.755Z,14.90
2023-05-21T02:04:50.225Z,14.90
2023-05-21T02:07:21.796Z,14.87
2023-05-21T02:09:55.874Z,14.86
2023-05-21T02:12:28.451Z,14.89
2023-05-21T02:14:59.997Z,14.81
2023-05-21T02:17:32.144Z,14.82
2023-05-21T02:20:11.343Z,14.79
2023-05-21T02:22:42.827Z,14.72
2023-05-21T02:25:19.883Z,14.66
2023-05-21T02:27:53.947Z,14.71
2023-05-21T02:30:25.716Z,14.72
2023-05-21T02:32:59.000Z,14.75
2023-05-21T02:35:29.897Z,14.59
2023-05-21T02:38:03.237Z,14.59
2023-05-21T02:40:37.402Z,14.59
2023-05-21T02:43:08.392Z,14.64
2023-05-21T02:45:39.374Z,14.68
2023-05-21T02:48:10.525Z,14.57
2023-05-21T02:50:45.354Z,14.52
2023-05-21T02:53:16.680Z,14.48
2023-05-21T02:55:50.408Z,14.43
2023-05-21T02:58:23.673Z,14.38
2023-05-21T03:00:55.382Z,14.38
2023-05-21T03:03:26.349Z,14.32
2023-05-21T03:05:58.813Z,14.30
2023-05-21T03:08:29.626Z,14.26
2023-05-21T03:11:03.191Z,14.15
2023-05-21T03:13:33.978Z,14.20
2023-05-21T03:16:04.772Z,14.26
2023-05-21T03:18:36.277Z,14.18
2023-05-21T03:21:07.305Z,14.17
2023-05-21T03:23:38.243Z,14.08
2023-05-21T03:26:11.811Z,14.08
2023-05-21T03:28:42.542Z,14.04
2023-05-21T03:31:13.607Z,14.05
2023-05-21T03:34:11.679Z,13.96
2023-05-21T03:36:42.587Z,13.91
2023-05-21T03:39:13.606Z,13.88
2023-05-21T03:41:47.111Z,13.77
2023-05-21T03:44:25.702Z,13.79
2023-05-21T03:47:05.134Z,13.77
2023-05-21T03:49:38.505Z,13.61
2023-05-21T03:52:11.502Z,13.53
2023-05-21T03:54:42.276Z,13.48
2023-05-21T03:57:16.461Z,13.51
2023-05-21T03:59:47.656Z,13.54
2023-05-21T04:02:18.795Z,13.49
2023-05-21T04:04:51.788Z,13.47
2023-05-21T04:07:22.872Z,13.48
2023-05-21T04:09:53.475Z,13.54
2023-05-21T04:12:26.802Z,13.54
2023-05-21T04:14:57.533Z,13.50
2023-05-21T04:17:28.800Z,13.53
2023-05-21T04:19:59.606Z,13.50
2023-05-21T04:22:30.269Z,13.57
2023-05-21T04:25:00.920Z,13.58
2023-05-21T04:27:38.565Z,13.52
2023-05-21T04:30:11.351Z,13.58
2023-05-21T04:32:46.116Z,13.70
2023-05-21T04:35:18.317Z,13.76
2023-05-21T04:37:49.229Z,13.78
2023-05-21T04:40:24.523Z,13.85
2023-05-21T04:42:58.333Z,13.93
2023-05-21T04:45:29.929Z,13.99
2023-05-21T04:48:04.141Z,14.11
2023-05-21T04:50:35.160Z,14.07
2023-05-21T04:53:06.289Z,14.25
2023-05-21T04:55:40.019Z,14.39
2023-05-21T04:58:14.069Z,14.55
2023-05-21T05:00:46.308Z,14.72
2023-05-21T05:03:17.500Z,14.73
2023-05-21T05:05:48.311Z,14.72
2023-05-21T05:08:19.276Z,14.82
2023-05-21T05:10:50.892Z,14.93
2023-05-21T05:13:24.286Z,15.09
2023-05-21T05:15:55.475Z,15.12
2023-05-21T05:18:26.362Z,15.11
2023-05-21T05:20:57.028Z,15.24
2023-05-21T05:23:28.116Z,15.32
2023-05-21T05:25:59.092Z,15.47
2023-05-21T05:28:34.170Z,15.65
2023-05-21T05:31:05.277Z,15.85
2023-05-21T05:33:36.710Z,16.00
2023-05-21T05:36:07.864Z,16.17
2023-05-21T05:38:39.296Z,16.30
2023-05-21T05:41:09.998Z,16.54
2023-05-21T05:43:43.331Z,16.83
2023-05-21T05:46:14.419Z,17.16
2023-05-21T05:48:45.040Z,17.47
2023-05-21T05:51:17.361Z,17.74
2023-05-21T05:53:48.157Z,18.19
2023-05-21T05:56:19.514Z,18.65
2023-05-21T05:58:52.801Z,19.24
2023-05-21T06:01:24.913Z,19.89
2023-05-21T06:03:57.558Z,20.41
2023-05-21T06:06:28.334Z,20.98
2023-05-21T06:08:59.105Z,21.50
2023-05-21T06:11:29.828Z,21.81
2023-05-21T06:14:03.802Z,22.13
2023-05-21T06:16:34.482Z,22.34
2023-05-21T06:19:05.663Z,22.19
2023-05-21T06:21:36.769Z,22.18
2023-05-21T06:24:09.699Z,21.92
2023-05-21T06:26:40.416Z,22.16
2023-05-21T06:29:15.407Z,21.92
2023-05-21T06:31:46.550Z,21.94
2023-05-21T06:34:17.524Z,21.90
2023-05-21T06:36:48.145Z,22.09
2023-05-21T06:39:18.935Z,22.40
2023-05-21T06:41:49.624Z,22.64
2023-05-21T06:44:41.734Z,22.85
2023-05-21T06:47:20.269Z,22.93
2023-05-21T06:49:50.941Z,22.74
2023-05-21T06:52:21.666Z,21.98
2023-05-21T06:54:52.664Z,21.78
2023-05-21T06:57:24.379Z,21.93
2023-05-21T06:59:57.944Z,22.04
2023-05-21T07:02:28.695Z,22.30
2023-05-21T07:04:59.458Z,22.83
2023-05-21T07:07:30.142Z,22.97
2023-05-21T07:10:00.800Z,22.66
2023-05-21T07:12:31.428Z,23.24
2023-05-21T07:15:04.979Z,23.64
2023-05-21T07:17:35.695Z,24.00
2023-05-21T07:20:09.116Z,24.33
2023-05-21T07:22:43.108Z,24.88
2023-05-21T07:25:15.398Z,25.45
2023-05-21T07:27:46.047Z,25.38
2023-05-21T07:30:20.429Z,26.22
2023-05-21T07:32:51.235Z,26.69
2023-05-21T07:35:22.408Z,27.80
2023-05-21T07:37:53.196Z,28.80
2023-05-21T07:40:23.919Z,28.96
2023-05-21T07:42:55.786Z,28.51
2023-05-21T07:45:32.753Z,29.21
2023-05-21T07:48:03.809Z,28.93
2023-05-21T07:50:37.892Z,28.29
2023-05-21T07:53:08.569Z,29.42
2023-05-21T07:55:48.032Z,29.53
2023-05-21T07:58:22.443Z,29.46
2023-05-21T08:00:55.966Z,30.33
2023-05-21T08:03:28.230Z,30.43
2023-05-21T08:05:59.276Z,30.80
2023-05-21T08:08:30.627Z,30.61
2023-05-21T08:11:02.328Z,29.99
2023-05-21T08:13:34.009Z,30.22
2023-05-21T08:16:10.262Z,29.28
2023-05-21T08:18:41.479Z,28.35
2023-05-21T08:21:12.434Z,29.15
2023-05-21T08:23:43.881Z,29.48
2023-05-21T08:26:16.642Z,30.00
2023-05-21T08:28:47.835Z,30.54
2023-05-21T08:31:21.988Z,30.94
2023-05-21T08:33:56.918Z,31.65
2023-05-21T08:36:43.226Z,31.99
2023-05-21T08:39:28.537Z,31.65
2023-05-21T08:42:07.620Z,30.88
2023-05-21T08:44:42.387Z,31.21
2023-05-21T08:47:19.527Z,30.97
2023-05-21T08:49:53.692Z,30.26
2023-05-21T08:52:24.633Z,30.35
2023-05-21T08:54:57.397Z,29.89
2023-05-21T08:57:29.780Z,29.79
2023-05-21T09:00:02.112Z,30.19
2023-05-21T09:02:40.776Z,30.12
2023-05-21T09:05:13.379Z,29.46
2023-05-21T09:07:52.495Z,30.27
2023-05-21T09:10:38.854Z,30.30
2023-05-21T09:13:10.315Z,29.97
2023-05-21T09:15:42.094Z,30.26
2023-05-21T09:18:16.313Z,30.89
2023-05-21T09:21:27.516Z,31.58
2023-05-21T09:24:04.681Z,32.78
2023-05-21T09:26:35.613Z,32.62
2023-05-21T09:29:09.254Z,32.80
2023-05-21T09:31:40.383Z,33.38
2023-05-21T09:34:14.322Z,33.06
2023-05-21T09:36:47.323Z,31.52
2023-05-21T09:39:31.985Z,31.91
2023-05-21T09:42:06.346Z,32.49
2023-05-21T09:44:38.083Z,31.89
2023-05-21T09:47:10.003Z,31.89
2023-05-21T09:49:47.375Z,31.45
2023-05-21T09:52:25.987Z,33.06
2023-05-21T09:54:56.852Z,33.15
2023-05-21T09:57:28.498Z,33.86
2023-05-21T09:59:59.810Z,35.03
2023-05-21T10:02:32.227Z,35.09
2023-05-21T10:05:08.729Z,34.80
2023-05-21T10:07:40.283Z,35.30
2023-05-21T10:10:16.096Z,35.52
2023-05-21T10:12:49.364Z,35.38
2023-05-21T10:15:25.267Z,36.71
2023-05-21T10:17:58.604Z,36.76
2023-05-21T10:20:32.102Z,36.41
2023-05-21T10:23:03.504Z,35.61
2023-05-21T10:25:35.148Z,35.40
2023-05-21T10:28:07.125Z,35.54
2023-05-21T10:30:39.498Z,35.09
2023-05-21T10:33:11.614Z,35.05
2023-05-21T10:35:45.634Z,35.21
2023-05-21T10:38:18.766Z,35.41
2023-05-21T10:40:51.056Z,35.60
2023-05-21T10:43:52.236Z,35.65
2023-05-21T10:46:50.822Z,35.73
2023-05-21T10:49:40.501Z,35.72
2023-05-21T10:52:28.002Z,35.68
2023-05-21T10:55:16.579Z,35.41
2023-05-21T10:58:19.650Z,33.77
2023-05-21T11:00:50.762Z,32.59
2023-05-21T11:03:22.471Z,33.26
2023-05-21T11:05:57.061Z,33.62
2023-05-21T11:08:31.916Z,33.39
2023-05-21T11:11:02.951Z,32.60
2023-05-21T11:13:50.212Z,32.56
2023-05-21T11:16:23.231Z,32.45
2023-05-21T11:19:06.763Z,32.39
2023-05-21T11:21:43.445Z,31.73
2023-05-21T11:24:23.704Z,32.36
2023-05-21T11:27:05.972Z,32.27
2023-05-21T11:29:47.466Z,31.85
2023-05-21T11:32:20.779Z,32.12
2023-05-21T11:34:52.175Z,32.24
2023-05-21T11:37:30.960Z,30.94
2023-05-21T11:40:26.392Z,31.49
2023-05-21T11:42:58.718Z,31.12
2023-05-21T11:45:34.420Z,31.41
2023-05-21T11:48:06.776Z,32.06
2023-05-21T11:50:38.125Z,32.17
2023-05-21T11:53:09.505Z,31.96
2023-05-21T11:55:47.762Z,31.50
2023-05-21T11:58:19.725Z,29.99
2023-05-21T12:00:54.915Z,30.14
2023-05-21T12:03:27.603Z,29.97
2023-05-21T12:05:58.996Z,30.05
2023-05-21T12:08:30.689Z,30.53
2023-05-21T12:11:04.808Z,31.03
2023-05-21T12:13:35.647Z,31.67
2023-05-21T12:16:07.343Z,32.08
2023-05-21T12:18:39.430Z,31.98
2023-05-21T12:21:12.350Z,32.13
2023-05-21T12:23:43.500Z,31.53
2023-05-21T12:26:16.843Z,31.52
2023-05-21T12:28:48.118Z,31.88
2023-05-21T12:31:19.177Z,32.34
2023-05-21T12:33:52.092Z,32.30
2023-05-21T12:36:29.065Z,32.23
2023-05-21T12:39:00.680Z,32.79
2023-05-21T12:41:34.289Z,33.19
2023-05-21T12:44:05.919Z,33.15
2023-05-21T12:46:36.816Z,33.29
2023-05-21T12:49:08.261Z,34.05
2023-05-21T12:51:42.502Z,33.74
2023-05-21T12:54:16.102Z,34.25
2023-05-21T12:56:52.638Z,33.41
2023-05-21T12:59:23.288Z,32.01
2023-05-21T13:01:55.147Z,32.51
2023-05-21T13:04:27.054Z,32.76
2023-05-21T13:06:57.625Z,32.66
2023-05-21T13:09:28.150Z,32.74
2023-05-21T13:12:01.535Z,32.42
2023-05-21T13:14:32.080Z,32.51
2023-05-21T13:17:02.705Z,32.20
2023-05-21T13:19:33.312Z,33.04
2023-05-21T13:22:04.005Z,33.86
2023-05-21T13:24:34.556Z,34.06
2023-05-21T13:27:07.819Z,33.27
2023-05-21T13:29:38.805Z,34.43
2023-05-21T13:32:10.074Z,34.59
2023-05-21T13:34:41.167Z,35.46
2023-05-21T13:37:11.839Z,36.97
2023-05-21T13:39:42.515Z,37.31
2023-05-21T13:42:16.012Z,35.77
2023-05-21T13:44:46.701Z,35.16
2023-05-21T13:47:17.371Z,34.21
2023-05-21T13:49:48.114Z,34.47
2023-05-21T13:52:19.040Z,34.09
2023-05-21T13:54:49.678Z,34.03
2023-05-21T13:57:22.956Z,34.09
2023-05-21T13:59:53.484Z,34.00
2023-05-21T14:02:24.165Z,32.98
2023-05-21T14:04:54.853Z,33.05
2023-05-21T14:07:25.820Z,32.74
2023-05-21T14:09:56.975Z,32.07
2023-05-21T14:12:30.520Z,31.56
2023-05-21T14:15:01.231Z,30.63
2023-05-21T14:17:31.966Z,30.28
2023-05-21T14:20:03.036Z,30.69
2023-05-21T14:22:33.608Z,30.99
2023-05-21T14:25:04.202Z,31.34
2023-05-21T14:27:38.081Z,31.05
2023-05-21T14:30:10.174Z,31.06
2023-05-21T14:32:40.881Z,30.98
2023-05-21T14:35:12.220Z,30.53
2023-05-21T14:37:44.659Z,30.77
2023-05-21T14:40:16.790Z,30.79
2023-05-21T14:42:52.664Z,30.54
2023-05-21T14:45:24.013Z,30.35
2023-05-21T14:47:55.028Z,29.89
2023-05-21T14:50:25.944Z,28.91
2023-05-21T14:52:57.143Z,29.27
2023-05-21T14:55:27.955Z,29.02
2023-05-21T14:58:01.506Z,29.14
2023-05-21T15:00:39.539Z,28.76
2023-05-21T15:03:10.639Z,28.82
2023-05-21T15:05:41.501Z,29.14
2023-05-21T15:08:12.187Z,29.21
2023-05-21T15:10:42.923Z,29.31
2023-05-21T15:13:16.262Z,29.48
2023-05-21T15:15:46.999Z,29.37
2023-05-21T15:18:17.745Z,29.32
2023-05-21T15:20:48.416Z,29.44
2023-05-21T15:23:19.338Z,29.57
2023-05-21T15:25:50.080Z,29.37
2023-05-21T15:28:23.889Z,29.17
2023-05-21T15:30:54.500Z,29.35
2023-05-21T15:33:25.094Z,28.99
2023-05-21T15:35:56.185Z,28.97
2023-05-21T15:38:28.501Z,28.97
2023-05-21T15:40:59.950Z,28.95
2023-05-21T15:43:33.221Z,28.95
2023-05-21T15:46:03.928Z,29.06
2023-05-21T15:48:34.509Z,29.36
2023-05-21T15:51:05.055Z,29.67
2023-05-21T15:53:35.838Z,29.64
2023-05-21T15:56:06.557Z,29.52
2023-05-21T15:58:40.171Z,29.57
2023-05-21T16:01:10.920Z,29.20
2023-05-21T16:03:41.597Z,29.24
2023-05-21T16:06:12.388Z,28.76
2023-05-21T16:08:43.069Z,28.69
2023-05-21T16:11:13.687Z,28.80
2023-05-21T16:13:46.853Z,28.73
2023-05-21T16:16:17.864Z,28.48
2023-05-21T16:18:48.848Z,27.99
2023-05-21T16:21:19.654Z,27.20
2023-05-21T16:23:50.227Z,26.86
2023-05-21T16:26:21.578Z,26.54
2023-05-21T16:28:54.931Z,26.57
2023-05-21T16:31:25.674Z,26.55
2023-05-21T16:33:56.233Z,26.37
2023-05-21T16:36:26.766Z,26.26
2023-05-21T16:38:57.314Z,26.38
2023-05-21T16:41:27.997Z,26.38
2023-05-21T16:44:01.655Z,26.44
2023-05-21T16:46:32.345Z,26.28
2023-05-21T16:49:02.961Z,26.06
2023-05-21T16:51:34.123Z,26.46
2023-05-21T16:54:05.733Z,26.78
2023-05-21T16:56:36.915Z,26.99
2023-05-21T16:59:10.436Z,27.09
2023-05-21T17:01:41.101Z,27.24
2023-05-21T17:04:11.919Z,27.48
2023-05-21T17:06:42.724Z,27.55
2023-05-21T17:09:13.285Z,27.68
2023-05-21T17:11:45.017Z,27.38
2023-05-21T17:14:30.391Z,27.38
2023-05-21T17:17:03.693Z,27.34
2023-05-21T17:19:34.335Z,27.29
2023-05-21T17:22:05.195Z,27.28
2023-05-21T17:24:36.021Z,27.46
2023-05-21T17:27:06.925Z,27.33
2023-05-21T17:29:40.300Z,27.08
2023-05-21T17:32:11.167Z,27.02
2023-05-21T17:34:41.984Z,26.93
2023-05-21T17:37:12.628Z,26.84
2023-05-21T17:39:43.431Z,26.59
2023-05-21T17:42:14.059Z,26.05
2023-05-21T17:44:47.428Z,26.13
2023-05-21T17:47:18.100Z,25.84
2023-05-21T17:49:48.673Z,25.33
2023-05-21T17:52:19.388Z,24.88
2023-05-21T17:54:50.097Z,25.01
2023-05-21T17:57:20.832Z,25.01
2023-05-21T17:59:55.331Z,25.12
2023-05-21T18:02:27.573Z,25.57
2023-05-21T18:04:58.196Z,25.99
2023-05-21T18:07:28.793Z,25.80
2023-05-21T18:09:59.839Z,25.12
2023-05-21T18:12:30.451Z,25.00
2023-05-21T18:15:04.455Z,24.80
2023-05-21T18:17:35.159Z,24.60
2023-05-21T18:20:07.157Z,24.24
2023-05-21T18:22:37.857Z,24.06
2023-05-21T18:25:09.539Z,23.78
2023-05-21T18:27:40.302Z,23.68
2023-05-21T18:30:14.775Z,23.51
2023-05-21T18:32:46.765Z,23.26
2023-05-21T18:35:17.600Z,23.07
2023-05-21T18:37:48.915Z,22.83
2023-05-21T18:40:21.497Z,22.66
2023-05-21T18:42:52.560Z,22.48
2023-05-21T18:45:26.033Z,22.27
2023-05-21T18:47:56.799Z,21.97
2023-05-21T18:50:27.551Z,21.84
2023-05-21T18:52:58.250Z,21.66
2023-05-21T18:55:28.818Z,21.49
2023-05-21T18:57:59.532Z,21.29
2023-05-21T19:00:34.333Z,21.10
2023-05-21T19:03:05.163Z,20.94
2023-05-21T19:05:35.863Z,20.88
2023-05-21T19:08:06.620Z,20.63
2023-05-21T19:10:39.528Z,20.36
2023-05-21T19:13:10.649Z,20.24
2023-05-21T19:15:47.373Z,20.19
2023-05-21T19:18:18.088Z,20.09
2023-05-21T19:20:48.665Z,19.97
2023-05-21T19:23:19.348Z,19.90
2023-05-21T19:25:50.010Z,19.93
2023-05-21T19:28:20.655Z,19.90
2023-05-21T19:30:53.998Z,19.79
2023-05-21T19:33:24.802Z,19.62
2023-05-21T19:35:55.789Z,19.25
2023-05-21T19:38:26.957Z,19.24
2023-05-21T19:40:57.643Z,19.16
2023-05-21T19:43:28.242Z,18.95
2023-05-21T19:46:01.743Z,18.80
2023-05-21T19:48:32.596Z,18.70
2023-05-21T19:51:03.435Z,18.56
2023-05-21T19:53:35.037Z,18.38
2023-05-21T19:56:08.783Z,18.35
2023-05-21T19:58:39.581Z,18.10
2023-05-21T20:01:14.409Z,18.02
2023-05-21T20:03:45.876Z,17.97
2023-05-21T20:06:19.251Z,17.85
2023-05-21T20:08:49.896Z,17.79
2023-05-21T20:11:21.334Z,17.65
2023-05-21T20:13:53.604Z,17.54
2023-05-21T20:16:27.670Z,17.46
2023-05-21T20:19:01.216Z,17.43
2023-05-21T20:21:34.320Z,17.31
2023-05-21T20:24:05.137Z,17.20
2023-05-21T20:26:36.947Z,17.19
2023-05-21T20:29:08.259Z,16.99
2023-05-21T20:31:41.585Z,16.81
2023-05-21T20:34:12.577Z,16.84
2023-05-21T20:36:44.042Z,16.78
2023-05-21T20:39:15.664Z,16.63
2023-05-21T20:41:47.166Z,16.62
2023-05-21T20:44:18.106Z,16.46
2023-05-21T20:46:53.118Z,16.36
2023-05-21T20:49:25.115Z,16.36
2023-05-21T20:51:55.967Z,16.38
2023-05-21T20:54:27.094Z,16.37
2023-05-21T20:56:59.268Z,16.34
2023-05-21T20:59:30.265Z,16.38
2023-05-21T21:02:03.774Z,16.35
2023-05-21T21:04:34.727Z,16.25
2023-05-21T21:07:08.227Z,16.23
2023-05-21T21:09:39.452Z,16.21
2023-05-21T21:12:24.506Z,16.17
2023-05-21T21:14:56.347Z,16.12
2023-05-21T21:17:29.819Z,16.18
2023-05-21T21:20:00.649Z,16.12
2023-05-21T21:22:32.557Z,16.02
2023-05-21T21:25:03.716Z,15.95
2023-05-21T21:27:35.022Z,15.99
2023-05-21T21:30:06.016Z,15.80
2023-05-21T21:32:39.712Z,15.83
2023-05-21T21:35:11.276Z,15.72
2023-05-21T21:37:41.963Z,15.72
2023-05-21T21:40:13.672Z,15.60
2023-05-21T21:42:46.595Z,15.53
2023-05-21T21:45:18.151Z,15.53
2023-05-21T21:47:51.684Z,15.59
2023-05-21T21:50:22.612Z,15.50
2023-05-21T21:52:57.477Z,15.42
2023-05-21T21:55:30.403Z,15.31
2023-05-21T21:58:01.096Z,15.30
2023-05-21T22:00:32.028Z,15.28
2023-05-21T22:03:05.442Z,15.11
2023-05-21T22:05:36.350Z,15.08
2023-05-21T22:08:07.718Z,15.11
2023-05-21T22:10:38.809Z,15.01
2023-05-21T22:13:09.718Z,15.00
2023-05-21T22:15:40.769Z,14.95
2023-05-21T22:18:15.702Z,14.88
2023-05-21T22:20:51.573Z,14.82
2023-05-21T22:23:22.243Z,14.74
2023-05-21T22:25:53.033Z,14.66
2023-05-21T22:28:24.054Z,14.66
2023-05-21T22:30:54.753Z,14.60
2023-05-21T22:33:29.328Z,14.53
2023-05-21T22:36:00.455Z,14.47
2023-05-21T22:38:31.506Z,14.50
2023-05-21T22:41:02.502Z,14.47
2023-05-21T22:43:34.048Z,14.46
2023-05-21T22:46:04.847Z,14.38
2023-05-21T22:48:41.971Z,14.23
2023-05-21T22:51:14.242Z,14.22
2023-05-21T22:53:45.583Z,14.25
2023-05-21T22:56:16.339Z,14.26
2023-05-21T22:58:47.265Z,14.21
2023-05-21T23:01:18.009Z,14.13
2023-05-21T23:03:53.788Z,14.16
2023-05-21T23:06:24.957Z,14.15
2023-05-21T23:08:55.579Z,14.13
2023-05-21T23:11:26.793Z,14.11
2023-05-21T23:13:57.434Z,14.13
2023-05-21T23:16:31.074Z,14.07
2023-05-21T23:19:05.332Z,14.04
2023-05-21T23:21:36.622Z,14.01
2023-05-21T23:24:08.165Z,14.00
2023-05-21T23:26:39.225Z,14.01
2023-05-21T23:29:10.312Z,13.97
2023-05-21T23:31:41.221Z,13.96
2023-05-21T23:34:14.652Z,13.94
2023-05-21T23:36:45.600Z,13.93
2023-05-21T23:39:16.348Z,13.94
2023-05-21T23:41:47.210Z,13.85
2023-05-21T23:44:20.401Z,13.82
2023-05-21T23:46:51.186Z,13.78
2023-05-21T23:49:24.816Z,13.74
2023-05-21T23:51:55.690Z,13.75
2023-05-21T23:54:26.381Z,13.75
2023-05-21T23:56:57.416Z,13.75
2023-05-21T23:59:28.699Z,13.77
